Time;durP1;ratioP1;P1;durP2;ratioP2;P2;SDS_P1;SDS_P2;PMS_P1;PMS_P2;Temp;Humidity;BMP_temperature;BMP_pressure;BME280_temperature;BME280_humidity;BME280_pressure;Samples;Min_cycle;Max_cycle;Signal;HPM_P1;HPM_P2
2021/04/03 00:00:21;;;;;;;33.38;19.98;;;15.30;99.90;;;;;;5012405;28;20100;-79
2021/04/03 00:02:47;;;;;;;28.98;18.00;;;15.30;99.90;;;;;;5012457;28;20483;-81
2021/04/03 00:05:14;;;;;;;29.38;18.92;;;15.30;99.90;;;;;;5012456;28;20022;-79
2021/04/03 00:07:40;;;;;;;34.42;16.85;;;15.20;99.90;;;;;;5009269;28;20356;-79
2021/04/03 00:10:16;;;;;;;27.52;16.65;;;15.30;99.90;;;;;;5012065;28;20080;-80
2021/04/03 00:12:43;;;;;;;32.63;16.67;;;15.30;99.90;;;;;;5011951;28;20032;-83
2021/04/03 00:15:10;;;;;;;29.45;16.17;;;15.30;99.90;;;;;;5011767;28;20478;-83
2021/04/03 00:17:36;;;;;;;24.02;13.55;;;15.30;99.90;;;;;;5012294;28;20045;-79
2021/04/03 00:20:04;;;;;;;26.58;14.55;;;15.40;99.90;;;;;;5011879;28;20386;-79
2021/04/03 00:22:30;;;;;;;26.25;15.05;;;15.40;99.90;;;;;;5011832;28;20040;-81
2021/04/03 00:24:56;;;;;;;28.13;16.70;;;15.40;99.90;;;;;;5011822;28;20093;-80
2021/04/03 00:27:22;;;;;;;26.42;16.63;;;15.40;99.90;;;;;;5015182;28;20054;-80
2021/04/03 00:29:47;;;;;;;25.65;16.13;;;15.30;99.90;;;;;;5015650;28;20072;-81
2021/04/03 00:32:13;;;;;;;24.70;16.73;;;15.30;99.90;;;;;;5015858;28;20033;-81
2021/04/03 00:34:39;;;;;;;25.30;17.08;;;15.20;99.90;;;;;;5014873;28;20029;-88
2021/04/03 00:37:05;;;;;;;27.70;19.00;;;15.00;99.90;;;;;;5001899;28;20037;-82
2021/04/03 00:39:30;;;;;;;25.92;15.60;;;14.90;99.90;;;;;;5015745;28;20676;-85
2021/04/03 00:41:56;;;;;;;22.40;14.13;;;14.70;99.90;;;;;;5015122;28;20435;-81
2021/04/03 00:44:22;;;;;;;23.35;15.05;;;14.60;99.90;;;;;;5015419;28;20026;-79
2021/04/03 00:46:47;;;;;;;20.90;13.15;;;14.70;99.90;;;;;;5015374;28;20029;-78
2021/04/03 00:49:13;;;;;;;23.85;14.05;;;14.60;99.90;;;;;;5015994;28;20054;-85
2021/04/03 00:51:40;;;;;;;21.42;13.60;;;14.70;99.90;;;;;;5014698;28;20032;-85
2021/04/03 00:54:07;;;;;;;22.73;13.50;;;14.70;99.90;;;;;;5015140;28;20021;-80
2021/04/03 00:56:33;;;;;;;21.52;12.63;;;14.80;99.90;;;;;;5013022;28;20022;-82
2021/04/03 00:58:58;;;;;;;20.02;11.60;;;14.80;99.90;;;;;;5015175;28;20036;-80
2021/04/03 01:01:24;;;;;;;18.40;12.75;;;14.80;99.90;;;;;;5015581;28;20113;-82
2021/04/03 01:03:50;;;;;;;17.00;10.13;;;14.80;99.90;;;;;;5015166;28;20490;-81
2021/04/03 01:06:16;;;;;;;17.75;11.85;;;14.80;99.90;;;;;;5015404;28;20080;-81
2021/04/03 01:08:41;;;;;;;21.63;11.15;;;14.80;99.90;;;;;;5015243;28;20080;-80
2021/04/03 01:11:08;;;;;;;17.45;10.50;;;14.90;99.90;;;;;;5015929;28;20026;-81
2021/04/03 01:13:48;;;;;;;20.77;11.57;;;15.00;99.90;;;;;;5015359;28;20733;-85
2021/04/03 01:16:43;;;;;;;18.40;11.20;;;15.00;99.90;;;;;;5014748;28;20482;-79
2021/04/03 01:19:46;;;;;;;18.35;11.13;;;15.00;99.90;;;;;;5009933;28;20411;-79
2021/04/03 01:22:52;;;;;;;14.98;10.45;;;15.10;99.90;;;;;;5014547;28;20113;-79
2021/04/03 01:25:37;;;;;;;19.17;12.40;;;15.10;99.90;;;;;;5019596;28;20387;-79
2021/04/03 01:28:11;;;;;;;22.33;12.88;;;15.00;99.90;;;;;;5014766;28;20049;-82
2021/04/03 01:30:40;;;;;;;20.95;11.70;;;15.00;99.90;;;;;;5014760;28;20026;-81
2021/04/03 01:33:11;;;;;;;15.88;11.00;;;15.00;99.90;;;;;;5013096;28;20041;-80
2021/04/03 01:35:44;;;;;;;19.15;12.93;;;14.90;99.90;;;;;;5014428;28;20096;-82
2021/04/03 01:38:16;;;;;;;16.63;11.38;;;14.90;99.90;;;;;;5013330;28;20493;-81
2021/04/03 01:40:45;;;;;;;23.02;11.35;;;14.80;99.90;;;;;;5014785;28;20378;-83
2021/04/03 01:43:16;;;;;;;18.02;11.38;;;14.80;99.90;;;;;;5014547;28;20033;-80
2021/04/03 01:45:42;;;;;;;18.35;11.60;;;14.80;99.90;;;;;;5014701;28;20533;-85
2021/04/03 01:48:10;;;;;;;17.50;11.90;;;14.80;99.90;;;;;;5014092;28;20057;-80
2021/04/03 01:50:40;;;;;;;20.83;11.20;;;14.80;99.90;;;;;;5013717;28;20029;-79
2021/04/03 01:53:06;;;;;;;19.25;11.13;;;14.80;99.90;;;;;;5014559;28;20022;-81
2021/04/03 01:55:33;;;;;;;16.00;10.63;;;14.80;99.90;;;;;;5014294;28;20045;-80
2021/04/03 01:58:00;;;;;;;17.33;10.70;;;14.80;99.90;;;;;;5013676;28;20088;-89
2021/04/03 02:00:28;;;;;;;16.77;11.23;;;14.80;99.90;;;;;;5014128;28;20046;-85
2021/04/03 02:02:54;;;;;;;22.95;10.85;;;14.70;99.90;;;;;;5014054;28;20112;-79
2021/04/03 02:05:21;;;;;;;18.40;10.45;;;14.80;99.90;;;;;;5013708;28;20014;-85
2021/04/03 02:07:48;;;;;;;18.80;10.10;;;14.80;99.90;;;;;;5013913;28;20018;-83
2021/04/03 02:10:22;;;;;;;30.75;11.82;;;14.80;99.90;;;;;;5012817;28;20391;-80
2021/04/03 02:12:48;;;;;;;22.90;11.88;;;14.80;99.90;;;;;;5014023;28;20018;-85
2021/04/03 02:15:15;;;;;;;16.35;12.10;;;14.80;99.90;;;;;;5012975;28;20035;-84
2021/04/03 02:17:44;;;;;;;23.13;13.70;;;14.80;99.90;;;;;;5013766;28;20033;-81
2021/04/03 02:20:12;;;;;;;22.42;13.63;;;14.70;99.90;;;;;;5013728;28;20505;-83
2021/04/03 02:22:39;;;;;;;19.67;12.77;;;14.60;99.90;;;;;;5014328;28;20041;-88
2021/04/03 02:25:10;;;;;;;22.70;14.35;;;14.50;99.90;;;;;;5014064;28;20026;-81
2021/04/03 02:27:37;;;;;;;29.85;15.68;;;14.40;99.90;;;;;;5013943;28;20109;-78
2021/04/03 02:30:16;;;;;;;21.08;15.38;;;14.20;99.90;;;;;;5014236;28;20022;-84
2021/04/03 02:32:54;;;;;;;22.17;15.43;;;14.00;99.90;;;;;;5013841;28;20455;-77
2021/04/03 02:35:21;;;;;;;25.42;16.13;;;13.80;99.90;;;;;;5014458;28;20101;-80
2021/04/03 02:37:51;;;;;;;23.30;15.88;;;13.70;99.90;;;;;;5012949;28;20037;-77
2021/04/03 02:40:19;;;;;;;33.30;17.02;;;13.60;99.90;;;;;;5013634;28;20022;-78
2021/04/03 02:43:08;;;;;;;24.90;16.42;;;13.50;99.90;;;;;;5013321;28;20026;-78
2021/04/03 02:45:41;;;;;;;31.00;17.60;;;13.50;99.90;;;;;;5013527;28;20537;-80
2021/04/03 02:48:16;;;;;;;23.88;15.23;;;13.40;99.90;;;;;;5013602;28;20038;-78
2021/04/03 02:50:44;;;;;;;26.83;16.50;;;13.40;99.90;;;;;;5013253;28;20026;-76
2021/04/03 02:53:16;;;;;;;20.75;14.68;;;13.30;99.90;;;;;;5013297;28;20017;-79
2021/04/03 02:55:47;;;;;;;23.88;13.45;;;13.30;99.90;;;;;;5013318;28;20018;-76
2021/04/03 02:58:17;;;;;;;21.25;13.55;;;13.20;99.90;;;;;;5012900;28;20524;-77
2021/04/03 03:00:45;;;;;;;18.17;10.88;;;13.20;99.90;;;;;;5013116;28;20072;-80
2021/04/03 03:03:12;;;;;;;13.35;9.07;;;13.20;99.90;;;;;;5013284;28;20029;-80
2021/04/03 03:05:39;;;;;;;12.30;9.00;;;13.10;99.90;;;;;;5013213;28;20018;-86
2021/04/03 03:08:06;;;;;;;9.43;7.13;;;13.20;99.90;;;;;;5012405;28;20120;-86
2021/04/03 03:10:32;;;;;;;12.77;6.43;;;13.20;99.90;;;;;;5013432;28;20056;-88
2021/04/03 03:13:00;;;;;;;18.52;5.93;;;13.20;99.90;;;;;;5013350;28;20041;-84
2021/04/03 03:15:30;;;;;;;8.57;5.03;;;13.20;99.90;;;;;;5011264;28;20021;-84
2021/04/03 03:17:56;;;;;;;8.50;5.38;;;13.20;99.90;;;;;;5012458;28;20026;-84
2021/04/03 03:20:22;;;;;;;11.38;4.65;;;13.20;99.90;;;;;;5011276;28;20393;-83
2021/04/03 03:22:48;;;;;;;6.47;4.68;;;13.10;99.90;;;;;;5011524;28;20212;-82
2021/04/03 03:25:14;;;;;;;9.30;5.32;;;13.10;99.90;;;;;;5012815;28;20022;-81
2021/04/03 03:27:43;;;;;;;8.75;5.00;;;13.10;99.90;;;;;;5012581;28;20030;-82
2021/04/03 03:30:11;;;;;;;8.60;5.20;;;13.10;99.90;;;;;;5012495;28;20077;-82
2021/04/03 03:32:37;;;;;;;6.82;4.35;;;13.10;99.90;;;;;;5012334;28;20018;-83
2021/04/03 03:35:04;;;;;;;6.72;4.80;;;13.10;99.90;;;;;;5012319;28;20030;-83
2021/04/03 03:37:31;;;;;;;4.55;3.30;;;13.00;99.90;;;;;;5012166;28;20025;-82
2021/04/03 03:39:57;;;;;;;4.40;3.47;;;13.00;99.90;;;;;;5012478;28;20017;-83
2021/04/03 03:42:24;;;;;;;8.20;3.63;;;13.00;99.90;;;;;;5011331;28;20061;-82
2021/04/03 03:44:51;;;;;;;3.47;2.50;;;13.00;99.90;;;;;;5012366;28;20022;-82
2021/04/03 03:47:17;;;;;;;3.90;2.58;;;13.00;99.90;;;;;;5012521;28;20068;-83
2021/04/03 03:49:43;;;;;;;4.25;2.13;;;13.00;99.90;;;;;;5018347;28;20642;-81
2021/04/03 03:52:09;;;;;;;3.20;2.30;;;13.00;99.90;;;;;;5012231;28;20463;-81
2021/04/03 03:54:35;;;;;;;5.68;2.22;;;13.00;99.90;;;;;;5011101;28;20093;-81
2021/04/03 03:57:02;;;;;;;4.28;2.50;;;13.00;99.90;;;;;;5010346;28;20314;-80
2021/04/03 03:59:27;;;;;;;6.32;2.83;;;13.00;99.90;;;;;;5010936;28;20041;-80
2021/04/03 04:01:53;;;;;;;4.93;2.83;;;12.90;99.90;;;;;;5009580;28;20021;-81
2021/04/03 04:04:19;;;;;;;5.60;3.33;;;12.90;99.90;;;;;;5010186;28;20069;-79
2021/04/03 04:06:44;;;;;;;9.55;4.13;;;12.90;99.90;;;;;;5010071;28;20022;-78
2021/04/03 04:09:10;;;;;;;3.30;2.38;;;12.90;99.90;;;;;;5012626;28;20086;-78
2021/04/03 04:11:36;;;;;;;6.45;1.77;;;12.90;99.90;;;;;;5009193;28;20022;-79
2021/04/03 04:14:02;;;;;;;5.45;2.00;;;12.80;99.90;;;;;;5010413;28;20018;-81
2021/04/03 04:16:28;;;;;;;2.83;1.77;;;12.80;99.90;;;;;;5012358;28;20466;-79
2021/04/03 04:18:53;;;;;;;14.82;1.80;;;12.80;99.90;;;;;;5012221;28;20041;-79
2021/04/03 04:21:19;;;;;;;7.63;1.98;;;12.70;99.90;;;;;;5012089;28;20085;-78
2021/04/03 04:23:45;;;;;;;3.10;1.48;;;12.50;99.90;;;;;;5012538;28;20430;-79
2021/04/03 04:26:11;;;;;;;1.08;1.00;;;12.40;99.90;;;;;;5012197;28;20557;-79
2021/04/03 04:28:37;;;;;;;0.77;0.77;;;12.30;99.90;;;;;;5012183;28;20108;-79
2021/04/03 04:31:04;;;;;;;3.20;1.20;;;12.10;99.90;;;;;;5011924;28;20113;-79
2021/04/03 04:33:30;;;;;;;7.25;1.63;;;12.10;99.90;;;;;;5012212;28;20442;-82
2021/04/03 04:35:56;;;;;;;6.78;1.10;;;12.00;99.90;;;;;;5011932;28;20030;-82
2021/04/03 04:38:22;;;;;;;5.07;2.25;;;11.90;99.90;;;;;;5010675;28;20036;-82
2021/04/03 04:40:47;;;;;;;2.97;1.00;;;11.70;99.90;;;;;;5012027;28;20025;-82
2021/04/03 04:43:13;;;;;;;1.48;0.95;;;11.60;99.90;;;;;;5011760;28;20014;-81
2021/04/03 04:45:39;;;;;;;2.15;0.80;;;11.50;99.90;;;;;;5011968;28;20058;-82
2021/04/03 04:48:05;;;;;;;1.27;0.82;;;11.40;99.90;;;;;;5011984;28;20054;-82
2021/04/03 04:50:31;;;;;;;0.90;0.80;;;11.30;99.90;;;;;;5011692;28;20098;-81
2021/04/03 04:52:56;;;;;;;1.00;0.90;;;11.30;99.90;;;;;;5011387;28;20026;-80
2021/04/03 04:55:22;;;;;;;0.88;0.88;;;11.30;99.90;;;;;;5011720;28;20022;-80
2021/04/03 04:57:48;;;;;;;1.85;0.85;;;11.30;99.90;;;;;;5012034;28;20026;-78
2021/04/03 05:00:14;;;;;;;0.85;0.80;;;11.20;99.90;;;;;;5011887;28;20495;-78
2021/04/03 05:02:40;;;;;;;1.02;0.93;;;11.20;99.90;;;;;;5011868;28;20022;-79
2021/04/03 05:05:06;;;;;;;0.90;0.90;;;11.20;99.90;;;;;;5011490;28;20144;-82
2021/04/03 05:07:32;;;;;;;0.75;0.75;;;11.20;99.90;;;;;;5011397;28;20481;-78
2021/04/03 05:09:57;;;;;;;0.90;0.90;;;11.20;99.90;;;;;;5011657;28;20105;-78
2021/04/03 05:12:23;;;;;;;1.38;0.90;;;11.30;99.90;;;;;;5010297;28;20396;-79
2021/04/03 05:14:49;;;;;;;1.38;0.70;;;11.40;99.90;;;;;;5015294;28;20093;-79
2021/04/03 05:17:15;;;;;;;0.80;0.80;;;11.40;99.90;;;;;;5014839;28;20072;-78
2021/04/03 05:19:40;;;;;;;0.98;0.90;;;11.40;99.90;;;;;;5014910;28;20022;-79
2021/04/03 05:22:06;;;;;;;0.70;0.70;;;11.40;99.90;;;;;;5015169;28;20034;-77
2021/04/03 05:24:32;;;;;;;1.13;1.02;;;11.40;99.90;;;;;;5015073;28;20475;-78
2021/04/03 05:26:58;;;;;;;4.47;4.07;;;11.40;99.90;;;;;;5013999;28;20026;-78
2021/04/03 05:29:23;;;;;;;2.72;2.53;;;11.50;99.90;;;;;;5014941;28;20057;-78
2021/04/03 05:31:49;;;;;;;4.40;3.05;;;11.50;99.90;;;;;;5014544;28;20092;-78
2021/04/03 05:34:15;;;;;;;8.68;5.72;;;11.50;99.90;;;;;;5013338;28;20064;-77
2021/04/03 05:36:40;;;;;;;5.80;4.82;;;11.50;99.90;;;;;;5014666;28;20052;-80
2021/04/03 05:39:06;;;;;;;2.92;2.72;;;11.50;99.90;;;;;;5014896;28;20050;-77
2021/04/03 05:41:32;;;;;;;0.68;0.68;;;11.50;99.90;;;;;;5011793;28;20018;-77
2021/04/03 05:43:59;;;;;;;1.35;1.05;;;11.60;99.90;;;;;;5013318;28;20125;-78
2021/04/03 05:46:25;;;;;;;2.25;0.90;;;11.70;99.90;;;;;;5014585;28;20025;-77
2021/04/03 05:48:51;;;;;;;0.77;0.77;;;11.80;99.90;;;;;;5014470;28;20046;-78
2021/04/03 05:51:18;;;;;;;2.13;1.80;;;12.10;99.90;;;;;;5015319;28;20026;-76
2021/04/03 05:53:44;;;;;;;5.18;2.33;;;12.30;99.90;;;;;;5014194;28;20034;-76
2021/04/03 05:56:10;;;;;;;2.70;2.00;;;12.40;99.90;;;;;;5014348;28;20030;-76
2021/04/03 05:58:37;;;;;;;4.22;2.95;;;12.50;99.90;;;;;;5014677;28;20057;-79
2021/04/03 06:01:05;;;;;;;7.00;3.65;;;12.50;99.90;;;;;;5014395;28;20048;-77
2021/04/03 06:03:31;;;;;;;7.45;3.83;;;12.60;99.90;;;;;;5013690;28;20033;-77
2021/04/03 06:05:59;;;;;;;9.35;4.28;;;12.70;99.90;;;;;;5013553;28;20442;-77
2021/04/03 06:08:32;;;;;;;5.65;4.45;;;13.10;99.90;;;;;;5012563;28;20025;-76
2021/04/03 06:11:15;;;;;;;5.43;4.45;;;13.00;99.90;;;;;;5013805;28;20022;-75
2021/04/03 06:13:44;;;;;;;7.65;4.40;;;13.00;99.90;;;;;;5013942;28;20028;-77
2021/04/03 06:16:25;;;;;;;9.05;5.88;;;13.30;99.90;;;;;;5013954;28;20018;-76
2021/04/03 06:19:10;;;;;;;14.03;7.03;;;13.30;99.90;;;;;;5014181;28;20368;-76
2021/04/03 06:21:37;;;;;;;9.93;5.50;;;13.30;99.90;;;;;;5001307;28;20022;-74
2021/04/03 06:24:13;;;;;;;15.75;4.65;;;13.90;99.90;;;;;;5011183;28;20038;-74
2021/04/03 06:26:39;;;;;;;12.05;5.60;;;14.10;99.90;;;;;;5013961;28;20017;-79
2021/04/03 06:29:22;;;;;;;8.10;5.82;;;14.10;99.90;;;;;;5014000;28;20399;-76
2021/04/03 06:31:52;;;;;;;11.90;6.22;;;14.30;99.90;;;;;;5013429;28;20029;-76
2021/04/03 06:34:37;;;;;;;11.48;7.25;;;14.50;99.90;;;;;;5013449;28;20044;-75
2021/04/03 06:37:05;;;;;;;7.90;5.32;;;14.30;99.90;;;;;;5013699;28;20097;-74
2021/04/03 06:39:49;;;;;;;13.13;6.28;;;14.40;99.90;;;;;;5013392;28;20022;-76
2021/04/03 06:42:34;;;;;;;8.00;5.68;;;14.20;99.90;;;;;;5013780;28;20018;-76
2021/04/03 06:45:21;;;;;;;12.50;7.28;;;14.00;99.90;;;;;;5013002;28;20022;-75
2021/04/03 06:47:48;;;;;;;11.00;6.40;;;13.90;99.90;;;;;;5013628;28;20049;-78
2021/04/03 06:50:15;;;;;;;10.27;5.55;;;14.50;99.90;;;;;;5013165;28;20037;-75
2021/04/03 06:52:42;;;;;;;8.23;5.35;;;14.80;99.90;;;;;;5013707;28;20037;-77
2021/04/03 06:55:11;;;;;;;9.98;5.70;;;14.50;99.90;;;;;;5012795;28;20022;-76
2021/04/03 06:57:40;;;;;;;6.80;4.85;;;15.00;99.90;;;;;;5012657;28;20029;-74
2021/04/03 07:00:06;;;;;;;9.35;5.40;;;16.20;99.90;;;;;;5012412;28;20032;-75
2021/04/03 07:02:40;;;;;;;7.53;4.68;;;17.10;99.90;;;;;;5012848;28;20073;-72
2021/04/03 07:05:08;;;;;;;5.60;4.20;;;17.80;99.90;;;;;;5012386;28;20033;-81
2021/04/03 07:07:35;;;;;;;6.20;4.03;;;17.90;99.90;;;;;;5011555;28;20056;-73
2021/04/03 07:10:01;;;;;;;9.80;4.00;;;18.40;99.90;;;;;;5013141;28;20029;-72
2021/04/03 07:12:29;;;;;;;5.45;3.78;;;18.10;99.90;;;;;;5025621;28;20034;-72
2021/04/03 07:14:56;;;;;;;10.98;3.95;;;18.00;99.90;;;;;;5021737;28;20025;-73
2021/04/03 07:17:24;;;;;;;13.07;7.80;;;18.40;99.90;;;;;;5025107;28;20025;-73
2021/04/03 07:19:52;;;;;;;9.27;5.72;;;18.70;99.90;;;;;;5025939;28;20029;-79
2021/04/03 07:22:19;;;;;;;7.63;3.70;;;18.70;99.90;;;;;;5028526;28;20032;-76
2021/04/03 07:24:45;;;;;;;5.25;3.72;;;18.20;99.90;;;;;;5025139;28;20033;-76
2021/04/03 07:27:11;;;;;;;9.20;6.38;;;17.90;99.90;;;;;;5026965;28;20039;-77
2021/04/03 07:29:44;;;;;;;8.05;4.00;;;17.80;99.90;;;;;;5023286;28;20030;-74
2021/04/03 07:32:31;;;;;;;5.78;3.55;;;18.60;99.90;;;;;;5014202;28;20113;-74
2021/04/03 07:34:58;;;;;;;4.43;3.17;;;19.50;99.90;;;;;;5026692;28;20030;-74
2021/04/03 07:37:34;;;;;;;8.57;3.75;;;20.00;99.90;;;;;;5011955;28;20041;-74
2021/04/03 07:40:01;;;;;;;5.03;3.38;;;20.30;98.70;;;;;;5016116;28;20025;-78
2021/04/03 07:42:38;;;;;;;8.70;4.88;;;20.80;98.00;;;;;;5030625;28;20021;-76
2021/04/03 07:45:25;;;;;;;8.68;3.40;;;21.00;97.00;;;;;;5029044;28;20032;-75
2021/04/03 07:47:51;;;;;;;5.53;4.07;;;20.40;97.00;;;;;;5026218;28;20049;-74
2021/04/03 07:50:49;;;;;;;4.07;3.47;;;19.90;96.60;;;;;;5026093;28;20018;-75
2021/04/03 07:53:35;;;;;;;7.28;3.72;;;19.80;96.40;;;;;;5023149;28;20102;-74
2021/04/03 07:56:02;;;;;;;5.55;3.75;;;18.70;96.90;;;;;;5022229;28;20018;-75
2021/04/03 07:58:29;;;;;;;5.65;3.38;;;17.90;98.70;;;;;;5025577;28;20033;-79
2021/04/03 08:00:57;;;;;;;5.18;3.55;;;17.80;98.40;;;;;;5027062;28;20026;-75
2021/04/03 08:03:25;;;;;;;6.63;3.78;;;18.20;98.10;;;;;;5024748;28;20025;-74
2021/04/03 08:06:01;;;;;;;8.68;4.35;;;18.50;97.10;;;;;;5023747;28;20024;-74
2021/04/03 08:08:28;;;;;;;5.25;3.58;;;18.30;97.40;;;;;;5009695;28;20029;-75
2021/04/03 08:11:15;;;;;;;5.47;3.20;;;17.30;97.60;;;;;;5014973;28;21940;-79
2021/04/03 08:13:49;;;;;;;4.93;3.25;;;16.80;99.10;;;;;;5021202;28;20037;-83
2021/04/03 08:16:16;;;;;;;6.38;4.30;;;16.70;99.30;;;;;;5017402;28;20042;-82
2021/04/03 08:18:44;;;;;;;6.63;3.08;;;16.90;99.20;;;;;;5014437;28;20038;-79
2021/04/03 08:21:11;;;;;;;6.97;3.65;;;17.30;99.40;;;;;;5016683;28;20475;-81
2021/04/03 08:23:50;;;;;;;19.40;4.82;;;17.50;98.00;;;;;;5013578;28;20060;-77
2021/04/03 08:26:21;;;;;;;6.50;3.60;;;17.40;98.40;;;;;;5004929;28;20022;-76
2021/04/03 08:28:46;;;;;;;5.07;3.33;;;17.10;98.90;;;;;;5006372;28;20475;-76
2021/04/03 08:31:17;;;;;;;5.00;3.55;;;17.00;98.50;;;;;;5011320;28;20048;-77
2021/04/03 08:33:44;;;;;;;5.00;3.50;;;16.90;98.70;;;;;;5016307;28;20100;-77
2021/04/03 08:36:11;;;;;;;9.00;3.63;;;17.30;98.60;;;;;;5010726;28;20474;-84
2021/04/03 08:38:38;;;;;;;9.52;4.20;;;17.60;98.40;;;;;;5016281;28;20129;-78
2021/04/03 08:41:04;;;;;;;9.52;4.38;;;17.70;98.40;;;;;;5011572;28;20018;-78
2021/04/03 08:43:31;;;;;;;11.45;5.22;;;17.60;98.00;;;;;;5014113;28;20029;-77
2021/04/03 08:46:03;;;;;;;11.50;4.18;;;17.20;97.70;;;;;;5024354;28;20026;-83
2021/04/03 08:48:38;;;;;;;12.90;5.18;;;17.10;97.50;;;;;;5012925;28;20078;-82
2021/04/03 08:51:07;;;;;;;6.43;4.25;;;17.10;98.10;;;;;;5014664;28;20109;-76
2021/04/03 08:53:44;;;;;;;8.30;5.78;;;17.20;97.90;;;;;;5028284;28;20017;-77
2021/04/03 08:56:15;;;;;;;7.15;4.15;;;17.50;97.50;;;;;;5008432;28;20030;-77
2021/04/03 08:58:41;;;;;;;8.05;5.30;;;17.60;96.70;;;;;;5026748;28;20120;-80
2021/04/03 09:01:07;;;;;;;7.70;5.38;;;17.30;96.00;;;;;;5029365;28;20593;-79
2021/04/03 09:03:34;;;;;;;6.28;4.95;;;17.30;96.40;;;;;;5027025;28;20081;-77
2021/04/03 09:06:00;;;;;;;10.98;4.53;;;17.40;96.80;;;;;;5030300;28;20021;-79
2021/04/03 09:08:26;;;;;;;13.23;5.18;;;17.30;96.30;;;;;;5027797;28;20311;-78
2021/04/03 09:11:13;;;;;;;7.20;4.93;;;17.30;95.80;;;;;;5025644;28;20144;-79
2021/04/03 09:13:40;;;;;;;9.13;5.85;;;17.20;96.00;;;;;;5033689;28;20034;-78
2021/04/03 09:16:15;;;;;;;11.27;4.88;;;17.30;96.40;;;;;;5014319;28;20030;-77
2021/04/03 09:18:44;;;;;;;7.80;5.03;;;17.30;96.30;;;;;;5005964;28;20100;-77
2021/04/03 09:21:21;;;;;;;13.70;4.95;;;17.20;97.10;;;;;;5014279;28;20050;-79
2021/04/03 09:23:50;;;;;;;7.80;5.50;;;17.40;96.80;;;;;;5026403;28;20025;-77
2021/04/03 09:26:16;;;;;;;6.55;4.50;;;17.50;96.50;;;;;;5023674;28;20017;-77
2021/04/03 09:28:42;;;;;;;6.55;4.72;;;17.70;95.60;;;;;;5032483;28;20040;-77
2021/04/03 09:31:10;;;;;;;6.20;4.60;;;17.70;95.70;;;;;;5029939;28;20133;-78
2021/04/03 09:33:47;;;;;;;8.48;5.28;;;17.70;95.70;;;;;;5027782;28;20030;-77
2021/04/03 09:36:18;;;;;;;5.43;4.53;;;17.30;96.10;;;;;;5023089;28;20021;-78
2021/04/03 09:38:45;;;;;;;8.17;4.70;;;17.30;95.80;;;;;;5017091;28;20038;-76
2021/04/03 09:41:33;;;;;;;6.47;4.63;;;17.30;95.80;;;;;;5025633;28;20057;-79
2021/04/03 09:43:59;;;;;;;5.60;4.68;;;17.70;94.80;;;;;;5020598;28;20057;-77
2021/04/03 09:46:28;;;;;;;4.95;4.30;;;17.80;93.80;;;;;;5013930;28;20030;-79
2021/04/03 09:48:56;;;;;;;8.25;4.80;;;17.90;94.30;;;;;;5014080;28;20050;-80
2021/04/03 09:51:21;;;;;;;10.02;5.40;;;18.10;93.70;;;;;;5022049;28;20054;-78
2021/04/03 09:53:47;;;;;;;6.07;5.03;;;18.00;93.00;;;;;;5019057;28;20064;-81
2021/04/03 09:56:13;;;;;;;5.50;4.35;;;17.80;93.60;;;;;;5020396;28;20080;-77
2021/04/03 09:58:39;;;;;;;7.82;4.68;;;18.00;93.00;;;;;;5028427;28;20118;-80
2021/04/03 10:01:05;;;;;;;6.50;4.45;;;18.00;92.80;;;;;;5027910;28;20109;-77
2021/04/03 10:03:31;;;;;;;6.88;4.38;;;17.90;93.00;;;;;;5022169;28;20037;-85
2021/04/03 10:05:57;;;;;;;6.07;3.90;;;17.60;93.80;;;;;;5017153;28;20053;-86
2021/04/03 10:08:23;;;;;;;5.82;4.00;;;17.20;94.10;;;;;;5024422;28;20045;-79
2021/04/03 10:10:48;;;;;;;14.43;4.70;;;17.20;94.00;;;;;;5030230;28;20072;-80
2021/04/03 10:13:14;;;;;;;8.40;4.38;;;16.90;94.20;;;;;;5022187;28;20041;-79
2021/04/03 10:15:41;;;;;;;5.88;3.92;;;17.00;94.60;;;;;;5016552;28;20030;-82
2021/04/03 10:18:07;;;;;;;6.35;4.00;;;17.50;94.00;;;;;;5016910;28;20498;-80
2021/04/03 10:20:32;;;;;;;5.10;4.30;;;17.50;93.90;;;;;;5018298;28;20025;-82
2021/04/03 10:22:58;;;;;;;5.43;4.03;;;17.30;93.90;;;;;;5032001;28;20025;-80
2021/04/03 10:25:24;;;;;;;5.43;3.47;;;17.50;93.80;;;;;;5029808;28;20072;-82
2021/04/03 10:27:50;;;;;;;5.85;4.03;;;17.70;94.00;;;;;;5022420;28;20160;-80
2021/04/03 10:30:16;;;;;;;9.10;3.70;;;18.00;93.90;;;;;;5015760;28;20072;-79
2021/04/03 10:32:42;;;;;;;5.68;3.90;;;18.10;93.50;;;;;;5013922;28;20034;-79
2021/04/03 10:35:08;;;;;;;8.45;3.60;;;18.40;93.50;;;;;;5013733;28;20438;-81
2021/04/03 10:37:34;;;;;;;5.00;3.90;;;18.50;93.30;;;;;;5022094;28;20038;-82
2021/04/03 10:40:00;;;;;;;4.65;3.63;;;18.30;92.80;;;;;;5015547;28;20058;-80
2021/04/03 10:42:25;;;;;;;5.85;4.65;;;17.90;93.10;;;;;;5012598;28;20109;-83
2021/04/03 10:44:51;;;;;;;5.75;4.30;;;18.00;93.00;;;;;;5013281;28;20029;-81
2021/04/03 10:47:17;;;;;;;8.30;4.35;;;17.80;92.80;;;;;;5017806;28;20029;-81
2021/04/03 10:49:43;;;;;;;5.95;4.53;;;17.50;93.00;;;;;;5013736;28;20060;-83
2021/04/03 10:52:08;;;;;;;7.43;4.38;;;17.40;93.40;;;;;;5013347;28;20445;-82
2021/04/03 10:54:34;;;;;;;6.20;4.40;;;17.60;93.10;;;;;;5012901;28;20029;-83
2021/04/03 10:57:00;;;;;;;5.90;4.55;;;17.60;93.30;;;;;;5013315;28;20026;-79
2021/04/03 10:59:25;;;;;;;6.57;4.25;;;17.60;93.40;;;;;;5012855;28;20026;-80
2021/04/03 11:01:51;;;;;;;7.05;4.45;;;17.70;93.40;;;;;;5013501;28;20581;-87
2021/04/03 11:04:17;;;;;;;5.78;4.63;;;17.60;93.50;;;;;;5013523;28;20029;-84
2021/04/03 11:06:43;;;;;;;5.80;4.22;;;17.40;93.40;;;;;;5013155;28;20041;-85
2021/04/03 11:09:08;;;;;;;7.82;4.78;;;17.40;93.70;;;;;;5012702;28;20018;-84
2021/04/03 11:11:34;;;;;;;6.72;4.30;;;17.40;93.60;;;;;;5031034;28;20045;-85
2021/04/03 11:14:00;;;;;;;7.43;4.90;;;17.40;93.10;;;;;;5029540;28;20478;-87
2021/04/03 11:16:30;;;;;;;8.00;4.72;;;17.40;93.50;;;;;;5027552;28;20542;-84
2021/04/03 11:18:56;;;;;;;7.95;5.35;;;17.60;93.80;;;;;;5028110;28;20026;-81
2021/04/03 11:21:22;;;;;;;8.52;5.20;;;17.70;93.30;;;;;;5030817;28;20022;-84
2021/04/03 11:23:49;;;;;;;10.93;4.53;;;17.40;93.50;;;;;;5025973;28;20034;-85
2021/04/03 11:26:15;;;;;;;5.65;4.13;;;17.40;94.00;;;;;;5020305;28;20033;-84
2021/04/03 11:28:41;;;;;;;8.13;4.50;;;17.50;93.30;;;;;;5019350;28;20030;-84
2021/04/03 11:31:07;;;;;;;7.03;4.47;;;17.40;93.30;;;;;;5021909;28;20024;-86
2021/04/03 11:33:33;;;;;;;5.28;3.85;;;17.50;94.00;;;;;;5024215;28;20437;-84
2021/04/03 11:35:59;;;;;;;7.82;4.15;;;17.70;93.60;;;;;;5030841;28;20030;-83
2021/04/03 11:38:24;;;;;;;5.00;3.83;;;17.90;93.30;;;;;;5025531;28;20418;-82
2021/04/03 11:40:51;;;;;;;7.53;3.92;;;17.90;93.00;;;;;;5015232;28;20710;-87
2021/04/03 11:43:18;;;;;;;5.18;3.85;;;18.10;92.80;;;;;;5016924;28;20064;-87
2021/04/03 11:45:43;;;;;;;6.85;4.60;;;17.90;92.40;;;;;;5019120;28;20076;-82
2021/04/03 11:48:09;;;;;;;5.13;3.70;;;17.60;93.10;;;;;;5029467;28;20045;-83
2021/04/03 11:50:35;;;;;;;7.28;5.70;;;17.50;93.00;;;;;;5027660;28;20063;-92
2021/04/03 11:53:01;;;;;;;6.20;4.30;;;17.40;93.00;;;;;;5024112;28;20029;-90
2021/04/03 11:55:27;;;;;;;6.03;4.30;;;17.30;93.40;;;;;;5022897;28;20030;-85
2021/04/03 11:57:53;;;;;;;4.38;3.83;;;17.20;93.80;;;;;;5018897;28;20060;-88
2021/04/03 12:00:20;;;;;;;7.28;4.28;;;17.30;94.40;;;;;;5024635;28;20470;-92
2021/04/03 12:02:47;;;;;;;8.20;4.13;;;17.40;94.40;;;;;;5013647;28;20057;-86
2021/04/03 12:05:13;;;;;;;4.75;4.07;;;17.50;93.90;;;;;;5011728;28;20030;-84
2021/04/03 12:07:41;;;;;;;4.38;3.50;;;17.50;92.90;;;;;;5011605;28;20085;-87
2021/04/03 12:10:15;;;;;;;4.22;3.13;;;17.50;92.80;;;;;;5011822;28;20509;-88
2021/04/03 12:12:41;;;;;;;6.75;3.85;;;17.60;92.80;;;;;;5012546;28;20489;-89
2021/04/03 12:15:09;;;;;;;5.75;3.67;;;17.70;92.90;;;;;;5012426;28;20030;-90
2021/04/03 12:17:35;;;;;;;8.38;3.50;;;17.70;93.30;;;;;;5010976;28;20073;-86
2021/04/03 12:20:04;;;;;;;6.45;4.10;;;17.70;92.60;;;;;;5015951;28;20104;-83
2021/04/03 12:22:29;;;;;;;7.68;4.82;;;17.60;93.10;;;;;;5009623;28;20025;-83
2021/04/03 12:24:55;;;;;;;6.05;3.90;;;17.40;93.70;;;;;;5020554;28;20026;-81
2021/04/03 12:27:21;;;;;;;6.18;3.85;;;17.40;93.50;;;;;;5015295;28;20025;-86
2021/04/03 12:29:47;;;;;;;4.93;3.60;;;17.40;93.00;;;;;;5014797;28;20022;-84
2021/04/03 12:32:12;;;;;;;4.60;3.13;;;17.30;92.90;;;;;;5015454;28;20080;-82
2021/04/03 12:34:38;;;;;;;5.75;4.40;;;17.30;92.20;;;;;;5015979;28;20026;-89
2021/04/03 12:37:04;;;;;;;6.88;4.70;;;17.10;93.00;;;;;;5025723;28;20049;-88
2021/04/03 12:39:30;;;;;;;4.38;3.80;;;17.00;93.90;;;;;;5015136;28;20553;-88
2021/04/03 12:41:55;;;;;;;11.82;4.78;;;17.00;94.40;;;;;;5024137;28;20092;-88
2021/04/03 12:44:21;;;;;;;7.57;4.07;;;16.90;94.70;;;;;;5015532;28;20026;-84
2021/04/03 12:46:47;;;;;;;7.07;4.15;;;16.70;94.90;;;;;;5014524;28;20034;-79